createdAt,value
2022-09-04T00:02:30.921Z,99.90
2022-09-04T00:05:25.310Z,99.90
2022-09-04T00:07:52.198Z,99.90
2022-09-04T00:10:31.813Z,99.90
2022-09-04T00:13:27.456Z,99.90
2022-09-04T00:16:08.196Z,99.90
2022-09-04T00:18:45.037Z,99.90
2022-09-04T00:21:39.858Z,99.90
2022-09-04T00:24:19.161Z,99.90
2022-09-04T00:26:58.116Z,99.90
2022-09-04T00:29:33.842Z,99.90
2022-09-04T00:32:14.358Z,99.90
2022-09-04T00:35:08.725Z,99.90
2022-09-04T00:37:41.279Z,99.90
2022-09-04T00:40:27.209Z,99.90
2022-09-04T00:43:29.406Z,99.90
2022-09-04T00:46:23.235Z,99.90
2022-09-04T00:49:29.700Z,99.90
2022-09-04T00:52:21.054Z,99.90
2022-09-04T00:55:27.184Z,99.90
2022-09-04T00:58:30.830Z,99.90
2022-09-04T01:00:59.713Z,99.90
2022-09-04T01:03:41.987Z,99.90
2022-09-04T01:06:29.564Z,99.90
2022-09-04T01:09:28.358Z,99.90
2022-09-04T01:12:07.961Z,99.90
2022-09-04T01:14:52.092Z,99.90
2022-09-04T01:17:36.035Z,99.90
2022-09-04T01:20:39.317Z,99.90
2022-09-04T01:23:37.664Z,99.90
2022-09-04T01:26:42.892Z,99.90
2022-09-04T01:29:45.273Z,99.90
2022-09-04T01:32:24.528Z,99.90
2022-09-04T01:35:02.888Z,99.90
2022-09-04T01:37:55.437Z,99.90
2022-09-04T01:40:54.256Z,99.90
2022-09-04T01:43:22.406Z,99.90
2022-09-04T01:46:07.379Z,99.90
2022-09-04T01:48:42.565Z,99.90
2022-09-04T01:51:21.405Z,99.90
2022-09-04T01:54:02.885Z,99.90
2022-09-04T01:56:42.251Z,99.90
2022-09-04T01:59:49.690Z,99.90
2022-09-04T02:03:03.805Z,99.90
2022-09-04T02:06:08.948Z,99.90
2022-09-04T02:08:42.166Z,99.90
2022-09-04T02:11:35.250Z,99.90
2022-09-04T02:14:27.641Z,99.90
2022-09-04T02:17:00.661Z,99.90
2022-09-04T02:19:51.532Z,99.90
2022-09-04T02:22:41.983Z,99.90
2022-09-04T02:25:22.392Z,99.90
2022-09-04T02:28:23.008Z,99.90
2022-09-04T02:31:05.689Z,99.90
2022-09-04T02:33:43.128Z,99.90
2022-09-04T02:37:04.109Z,99.90
2022-09-04T02:39:46.258Z,99.90
2022-09-04T02:42:24.798Z,99.90
2022-09-04T02:45:16.738Z,99.90
2022-09-04T02:48:08.081Z,99.90
2022-09-04T02:51:13.942Z,99.90
2022-09-04T02:54:10.601Z,99.90
2022-09-04T02:56:40.282Z,99.90
2022-09-04T02:59:38.106Z,99.90
2022-09-04T03:02:11.585Z,99.90
2022-09-04T03:04:49.988Z,99.90
2022-09-04T03:07:31.890Z,99.90
2022-09-04T03:10:15.400Z,99.90
2022-09-04T03:12:51.596Z,99.90
2022-09-04T03:15:39.628Z,99.90
2022-09-04T03:18:29.820Z,99.90
2022-09-04T03:21:17.307Z,99.90
2022-09-04T03:24:03.049Z,99.90
2022-09-04T03:26:32.163Z,99.90
2022-09-04T03:29:01.927Z,99.90
2022-09-04T03:31:38.435Z,99.90
2022-09-04T03:34:33.086Z,99.90
2022-09-04T03:37:38.275Z,99.90
2022-09-04T03:40:13.962Z,99.80
2022-09-04T03:43:14.376Z,99.70
2022-09-04T03:46:02.784Z,99.80
2022-09-04T03:48:41.614Z,99.90
2022-09-04T03:51:10.903Z,99.90
2022-09-04T03:53:41.680Z,99.90
2022-09-04T03:56:14.143Z,99.90
2022-09-04T03:58:59.995Z,99.90
2022-09-04T04:01:40.848Z,99.90
2022-09-04T04:04:42.393Z,99.90
2022-09-04T04:07:21.607Z,99.90
2022-09-04T04:10:13.494Z,99.90
2022-09-04T04:13:19.380Z,99.90
2022-09-04T04:16:26.683Z,99.90
2022-09-04T04:19:22.451Z,99.90
2022-09-04T04:22:17.257Z,99.90
2022-09-04T04:24:54.311Z,99.90
2022-09-04T04:27:33.554Z,99.90
2022-09-04T04:30:14.505Z,99.90
2022-09-04T04:33:32.542Z,99.90
2022-09-04T04:36:25.872Z,99.90
2022-09-04T04:39:01.120Z,99.90
2022-09-04T04:42:05.220Z,99.90
2022-09-04T04:45:07.400Z,99.90
2022-09-04T04:47:52.761Z,99.90
2022-09-04T04:50:50.149Z,99.90
2022-09-04T04:53:29.504Z,99.90
2022-09-04T04:55:59.189Z,99.90
2022-09-04T04:59:12.114Z,99.90
2022-09-04T05:01:58.863Z,99.90
2022-09-04T05:04:36.139Z,99.90
2022-09-04T05:07:10.440Z,99.90
2022-09-04T05:10:01.415Z,99.90
2022-09-04T05:13:10.693Z,99.90
2022-09-04T05:16:05.483Z,99.90
2022-09-04T05:19:02.575Z,99.90
2022-09-04T05:21:50.664Z,99.90
2022-09-04T05:24:29.582Z,99.90
2022-09-04T05:27:31.921Z,99.90
2022-09-04T05:30:08.570Z,99.90
2022-09-04T05:32:58.958Z,99.90
2022-09-04T05:36:10.374Z,99.70
2022-09-04T05:39:04.822Z,99.30
2022-09-04T05:41:49.264Z,99.10
2022-09-04T05:44:19.263Z,98.70
2022-09-04T05:47:07.181Z,98.30
2022-09-04T05:49:40.216Z,97.80
2022-09-04T05:52:25.127Z,97.00
2022-09-04T05:55:14.191Z,96.50
2022-09-04T05:58:05.945Z,96.00
2022-09-04T06:01:06.944Z,94.00
2022-09-04T06:03:46.535Z,90.50
2022-09-04T06:06:44.254Z,87.20
2022-09-04T06:09:18.827Z,83.60
2022-09-04T06:12:19.443Z,81.70
2022-09-04T06:15:05.053Z,79.10
2022-09-04T06:18:13.014Z,79.20
2022-09-04T06:20:51.729Z,80.00
2022-09-04T06:23:43.971Z,81.40
2022-09-04T06:26:32.387Z,82.40
2022-09-04T06:29:53.246Z,82.80
2022-09-04T06:32:29.525Z,83.00
2022-09-04T06:35:36.346Z,83.00
2022-09-04T06:38:24.679Z,82.40
2022-09-04T06:41:03.420Z,82.20
2022-09-04T06:43:48.830Z,82.20
2022-09-04T06:46:26.163Z,82.00
2022-09-04T06:49:00.737Z,81.40
2022-09-04T06:51:46.563Z,80.00
2022-09-04T06:54:19.186Z,78.90
2022-09-04T06:57:12.518Z,78.20
2022-09-04T06:59:57.538Z,77.70
2022-09-04T07:02:51.983Z,77.50
2022-09-04T07:05:21.819Z,77.00
2022-09-04T07:07:57.652Z,76.20
2022-09-04T07:10:30.544Z,75.40
2022-09-04T07:13:09.063Z,74.90
2022-09-04T07:15:58.835Z,71.00
2022-09-04T07:18:31.958Z,66.80
2022-09-04T07:21:17.491Z,65.00
2022-09-04T07:24:06.986Z,60.10
2022-09-04T07:26:44.820Z,57.90
2022-09-04T07:29:39.977Z,56.10
2022-09-04T07:32:22.007Z,54.20
2022-09-04T07:35:08.011Z,52.60
2022-09-04T07:38:05.032Z,50.40
2022-09-04T07:40:38.416Z,48.70
2022-09-04T07:43:21.914Z,47.70
2022-09-04T07:45:55.294Z,46.50
2022-09-04T07:48:41.214Z,47.50
2022-09-04T07:51:16.176Z,45.90
2022-09-04T07:53:46.158Z,44.60
2022-09-04T07:56:35.395Z,44.60
2022-09-04T07:59:16.997Z,44.60
2022-09-04T08:02:02.621Z,45.00
2022-09-04T08:05:03.856Z,45.20
2022-09-04T08:07:33.990Z,44.10
2022-09-04T08:10:07.304Z,43.60
2022-09-04T08:12:57.569Z,43.10
2022-09-04T08:15:32.684Z,42.80
2022-09-04T08:18:36.947Z,42.60
2022-09-04T08:21:27.758Z,42.70
2022-09-04T08:24:03.571Z,41.90
2022-09-04T08:26:37.092Z,41.80
2022-09-04T08:29:10.339Z,44.50
2022-09-04T08:31:55.516Z,47.80
2022-09-04T08:34:50.831Z,50.60
2022-09-04T08:37:28.561Z,53.40
2022-09-04T08:40:33.568Z,55.40
2022-09-04T08:43:29.739Z,57.00
2022-09-04T08:45:59.792Z,58.00
2022-09-04T08:49:11.745Z,58.90
2022-09-04T08:51:57.233Z,59.70
2022-09-04T08:54:57.806Z,60.40
2022-09-04T08:57:43.332Z,61.20
2022-09-04T09:00:40.257Z,61.10
2022-09-04T09:03:40.846Z,61.20
2022-09-04T09:06:45.488Z,61.30
2022-09-04T09:09:31.006Z,61.90
2022-09-04T09:12:22.258Z,62.20
2022-09-04T09:14:58.181Z,62.30
2022-09-04T09:17:40.287Z,62.20
2022-09-04T09:20:43.345Z,62.40
2022-09-04T09:23:29.669Z,62.90
2022-09-04T09:25:56.656Z,63.30
2022-09-04T09:28:32.902Z,62.30
2022-09-04T09:31:38.293Z,60.90
2022-09-04T09:34:20.024Z,60.00
2022-09-04T09:37:15.969Z,60.20
2022-09-04T09:39:46.011Z,59.90
2022-09-04T09:42:37.517Z,59.50
2022-09-04T09:45:26.980Z,59.60
2022-09-04T09:47:56.790Z,58.80
2022-09-04T09:51:00.990Z,58.70
2022-09-04T09:53:29.046Z,59.60
2022-09-04T09:56:32.735Z,60.20
2022-09-04T09:59:35.072Z,60.30
2022-09-04T10:02:30.109Z,60.20
2022-09-04T10:05:13.679Z,60.50
2022-09-04T10:07:43.948Z,60.10
2022-09-04T10:10:29.751Z,59.70
2022-09-04T10:13:08.682Z,58.70
2022-09-04T10:15:39.107Z,57.80
2022-09-04T10:18:14.940Z,57.70
2022-09-04T10:21:10.482Z,57.10
2022-09-04T10:24:05.911Z,58.20
2022-09-04T10:26:42.676Z,59.30
2022-09-04T10:29:26.650Z,60.00
2022-09-04T10:32:18.402Z,60.30
2022-09-04T10:34:48.512Z,59.60
2022-09-04T10:37:28.616Z,59.90
2022-09-04T10:40:38.429Z,59.40
2022-09-04T10:43:44.843Z,59.50
2022-09-04T10:46:27.904Z,59.00
2022-09-04T10:49:17.874Z,56.30
2022-09-04T10:52:17.176Z,53.00
2022-09-04T10:54:48.134Z,52.00
2022-09-04T10:57:42.278Z,51.80
2022-09-04T11:00:16.617Z,50.60
2022-09-04T11:03:11.356Z,51.30
2022-09-04T11:06:27.319Z,50.80
2022-09-04T11:09:05.600Z,52.50
2022-09-04T11:11:52.997Z,53.10
2022-09-04T11:14:29.422Z,53.80
2022-09-04T11:17:34.172Z,53.20
2022-09-04T11:20:21.339Z,53.40
2022-09-04T11:23:05.147Z,53.90
2022-09-04T11:25:44.383Z,53.70
2022-09-04T11:28:36.286Z,54.50
2022-09-04T11:31:28.938Z,55.30
2022-09-04T11:34:33.137Z,55.10
2022-09-04T11:36:59.978Z,54.40
2022-09-04T11:39:45.740Z,54.10
2022-09-04T11:42:22.188Z,53.90
2022-09-04T11:45:00.482Z,54.20
2022-09-04T11:47:30.309Z,54.70
2022-09-04T11:50:20.399Z,54.90
2022-09-04T11:53:15.119Z,55.00
2022-09-04T11:55:46.605Z,54.40
2022-09-04T11:58:40.548Z,54.00
2022-09-04T12:01:10.155Z,54.00
2022-09-04T12:03:55.969Z,55.30
2022-09-04T12:06:51.242Z,55.10
2022-09-04T12:10:06.354Z,55.30
2022-09-04T12:12:57.928Z,55.70
2022-09-04T12:15:54.358Z,54.80
2022-09-04T12:18:36.099Z,54.10
2022-09-04T12:21:25.456Z,53.50
2022-09-04T12:24:08.467Z,53.50
2022-09-04T12:26:56.016Z,53.70
2022-09-04T12:29:45.219Z,53.30
2022-09-04T12:32:21.296Z,53.90
2022-09-04T12:34:57.135Z,53.70
2022-09-04T12:37:36.464Z,53.70
2022-09-04T12:40:25.503Z,54.20
2022-09-04T12:43:20.483Z,54.30
2022-09-04T12:46:33.289Z,53.90
2022-09-04T12:49:26.200Z,53.30
2022-09-04T12:52:28.230Z,53.60
2022-09-04T12:55:51.769Z,53.80
2022-09-04T12:59:03.010Z,53.70
2022-09-04T13:01:52.430Z,53.70
2022-09-04T13:04:27.496Z,53.30
2022-09-04T13:06:55.691Z,53.70
2022-09-04T13:09:25.367Z,53.90
2022-09-04T13:12:01.382Z,54.10
2022-09-04T13:14:51.752Z,54.20
2022-09-04T13:17:43.582Z,54.50
2022-09-04T13:20:23.800Z,53.90
2022-09-04T13:23:11.950Z,53.80
2022-09-04T13:25:57.784Z,53.20
2022-09-04T13:28:46.405Z,53.00
2022-09-04T13:31:19.289Z,53.20
2022-09-04T13:34:04.802Z,53.50
2022-09-04T13:36:40.641Z,53.50
2022-09-04T13:39:13.567Z,53.40
2022-09-04T13:42:18.195Z,52.30
2022-09-04T13:44:56.901Z,52.80
2022-09-04T13:47:32.107Z,53.30
2022-09-04T13:50:16.233Z,53.70
2022-09-04T13:52:55.955Z,53.80
2022-09-04T13:55:39.717Z,53.50
2022-09-04T13:58:13.151Z,54.30
2022-09-04T14:00:49.456Z,54.60
2022-09-04T14:03:30.992Z,54.70
2022-09-04T14:05:59.279Z,54.70
2022-09-04T14:08:31.344Z,54.80
2022-09-04T14:11:19.354Z,55.10
2022-09-04T14:14:11.400Z,55.50
2022-09-04T14:16:40.191Z,55.60
2022-09-04T14:19:15.557Z,55.70
2022-09-04T14:21:55.332Z,55.90
2022-09-04T14:24:34.389Z,56.00
2022-09-04T14:27:26.424Z,56.00
2022-09-04T14:30:09.167Z,55.70
2022-09-04T14:33:24.363Z,55.80
2022-09-04T14:35:59.900Z,55.50
2022-09-04T14:38:56.625Z,54.40
2022-09-04T14:41:36.396Z,52.80
2022-09-04T14:44:06.883Z,51.80
2022-09-04T14:46:51.436Z,50.90
2022-09-04T14:49:25.089Z,49.40
2022-09-04T14:51:56.778Z,49.30
2022-09-04T14:54:27.918Z,48.70
2022-09-04T14:57:04.646Z,47.30
2022-09-04T14:59:41.465Z,46.60
2022-09-04T15:02:11.508Z,46.50
2022-09-04T15:05:00.249Z,45.60
2022-09-04T15:07:35.284Z,45.60
2022-09-04T15:10:49.843Z,45.30
2022-09-04T15:13:46.684Z,45.30
2022-09-04T15:16:20.680Z,45.90
2022-09-04T15:19:05.095Z,46.40
2022-09-04T15:21:58.519Z,46.60
2022-09-04T15:24:54.926Z,46.90
2022-09-04T15:27:28.511Z,46.90
2022-09-04T15:30:16.559Z,47.60
2022-09-04T15:32:45.030Z,47.80
2022-09-04T15:35:16.462Z,48.10
2022-09-04T15:37:48.438Z,48.50
2022-09-04T15:40:33.679Z,49.20
2022-09-04T15:43:18.405Z,49.40
2022-09-04T15:45:51.423Z,49.80
2022-09-04T15:48:28.014Z,50.50
2022-09-04T15:51:03.962Z,50.60
2022-09-04T15:53:35.944Z,50.90
2022-09-04T15:56:12.044Z,51.00
2022-09-04T15:59:22.799Z,50.80
2022-09-04T16:02:19.127Z,50.20
2022-09-04T16:05:03.416Z,51.00
2022-09-04T16:07:40.460Z,51.70
2022-09-04T16:10:24.665Z,52.30
2022-09-04T16:13:05.372Z,52.10
2022-09-04T16:15:41.974Z,52.20
2022-09-04T16:18:19.509Z,53.50
2022-09-04T16:20:59.074Z,53.60
2022-09-04T16:23:32.806Z,53.70
2022-09-04T16:26:17.935Z,54.00
2022-09-04T16:28:51.375Z,55.00
2022-09-04T16:31:32.170Z,55.00
2022-09-04T16:34:08.703Z,54.30
2022-09-04T16:36:44.135Z,54.60
2022-09-04T16:39:27.007Z,54.90
2022-09-04T16:41:56.779Z,55.70
2022-09-04T16:44:35.258Z,56.30
2022-09-04T16:47:10.532Z,56.80
2022-09-04T16:49:40.640Z,56.80
2022-09-04T16:52:43.789Z,57.20
2022-09-04T16:55:13.910Z,57.90
2022-09-04T16:57:53.449Z,58.10
2022-09-04T17:00:22.409Z,58.90
2022-09-04T17:03:17.433Z,59.40
2022-09-04T17:06:06.256Z,60.00
2022-09-04T17:08:39.858Z,60.10
2022-09-04T17:11:28.577Z,60.30
2022-09-04T17:14:09.850Z,60.40
2022-09-04T17:16:54.778Z,60.50
2022-09-04T17:19:22.000Z,60.80
2022-09-04T17:26:19.883Z,60.90
2022-09-04T17:29:08.634Z,61.20
2022-09-04T17:29:12.478Z,61.50
2022-09-04T17:31:23.352Z,61.70
2022-09-04T17:39:44.284Z,62.30
2022-09-04T17:40:52.074Z,62.80
2022-09-04T17:40:52.075Z,63.20
2022-09-04T17:43:23.232Z,63.80
2022-09-04T17:46:12.729Z,64.40
2022-09-04T17:48:45.934Z,65.70
2022-09-04T17:51:25.635Z,65.30
2022-09-04T17:54:02.196Z,65.70
2022-09-04T17:56:45.338Z,66.00
2022-09-04T17:59:42.477Z,66.20
2022-09-04T18:02:22.403Z,66.50
2022-09-04T18:05:00.541Z,66.80
2022-09-04T18:07:57.775Z,67.30
2022-09-04T18:10:34.082Z,67.20
2022-09-04T18:13:37.381Z,68.30
2022-09-04T18:16:12.946Z,69.00
2022-09-04T18:18:50.809Z,69.50
2022-09-04T18:21:41.520Z,70.00
2022-09-04T18:24:38.773Z,70.50
2022-09-04T18:27:17.708Z,70.70
2022-09-04T18:37:11.513Z,71.10
2022-09-04T18:37:15.972Z,71.80
2022-09-04T18:37:16.838Z,71.40
2022-09-04T18:39:44.092Z,72.00
2022-09-04T18:48:14.193Z,72.60
2022-09-04T18:50:38.516Z,73.00
2022-09-04T18:50:43.619Z,73.50
2022-09-04T18:53:55.709Z,73.40
2022-09-04T18:56:47.093Z,73.70
2022-09-04T18:59:28.071Z,74.00
2022-09-04T19:02:19.719Z,74.30
2022-09-04T19:05:18.775Z,74.60
2022-09-04T19:07:50.477Z,74.70
2022-09-04T19:10:31.338Z,74.90
2022-09-04T19:13:34.616Z,75.20
2022-09-04T19:16:10.750Z,75.30
2022-09-04T19:18:50.113Z,75.40
2022-09-04T19:21:29.117Z,75.70
2022-09-04T19:24:09.502Z,75.90
2022-09-04T19:26:44.444Z,76.00
2022-09-04T19:29:25.374Z,76.30
2022-09-04T19:32:09.585Z,76.50
2022-09-04T19:34:39.445Z,76.70
2022-09-04T19:38:25.771Z,76.70
2022-09-04T19:46:05.760Z,77.00
2022-09-04T19:46:17.661Z,77.10
2022-09-04T19:47:08.829Z,77.10
2022-09-04T19:53:24.409Z,77.30
2022-09-04T19:53:37.627Z,77.30
2022-09-04T19:56:21.034Z,77.50
2022-09-04T19:59:11.430Z,77.60
2022-09-04T20:02:03.096Z,77.70
2022-09-04T20:04:48.159Z,77.80
2022-09-04T20:07:26.793Z,77.80
2022-09-04T20:09:57.626Z,77.90
2022-09-04T20:12:37.258Z,77.90
2022-09-04T20:15:14.944Z,77.90
2022-09-04T20:17:54.384Z,77.90
2022-09-04T20:20:35.901Z,78.00
2022-09-04T20:23:45.978Z,78.30
2022-09-04T20:26:28.731Z,78.40
2022-09-04T20:29:14.096Z,78.50
2022-09-04T20:31:59.317Z,78.80
2022-09-04T20:34:50.429Z,78.80
2022-09-04T20:37:23.663Z,78.90
2022-09-04T20:40:08.330Z,79.00
2022-09-04T20:42:54.139Z,79.10
2022-09-04T20:47:56.792Z,79.20
2022-09-04T20:52:49.128Z,79.30
2022-09-04T20:52:52.791Z,79.30
2022-09-04T20:54:51.135Z,79.40
2022-09-04T21:02:09.360Z,79.50
2022-09-04T21:03:21.972Z,79.60
2022-09-04T21:03:34.862Z,79.70
2022-09-04T21:06:17.824Z,79.80
2022-09-04T21:09:09.048Z,79.90
2022-09-04T21:11:48.860Z,80.10
2022-09-04T21:14:26.864Z,80.20
2022-09-04T21:17:34.138Z,80.40
2022-09-04T21:20:33.318Z,80.40
2022-09-04T21:23:41.569Z,80.30
2022-09-04T21:26:25.890Z,80.30
2022-09-04T21:28:58.337Z,80.20
2022-09-04T21:31:56.455Z,80.20
2022-09-04T21:35:14.333Z,80.20
2022-09-04T21:37:47.047Z,80.10
2022-09-04T21:40:51.830Z,80.00
2022-09-04T21:44:02.465Z,79.90
2022-09-04T21:46:58.358Z,79.80
2022-09-04T21:49:28.085Z,79.70
2022-09-04T21:52:13.832Z,79.80
2022-09-04T21:57:25.921Z,79.80
2022-09-04T22:02:30.949Z,79.90
2022-09-04T22:02:35.690Z,80.10
2022-09-04T22:04:35.791Z,80.40
2022-09-04T22:10:21.634Z,81.10
2022-09-04T22:13:41.545Z,81.60
2022-09-04T22:13:46.657Z,82.00
2022-09-04T22:16:31.939Z,82.60
2022-09-04T22:19:01.897Z,82.80
2022-09-04T22:21:51.074Z,83.00
2022-09-04T22:24:42.007Z,82.90
2022-09-04T22:27:09.011Z,83.20
2022-09-04T22:29:54.019Z,83.40
2022-09-04T22:32:45.936Z,83.60
2022-09-04T22:35:27.779Z,83.70
2022-09-04T22:38:21.279Z,83.70
2022-09-04T22:41:17.668Z,83.80
2022-09-04T22:44:05.744Z,84.00
2022-09-04T22:47:22.897Z,84.20
2022-09-04T22:50:08.256Z,84.40
2022-09-04T22:52:59.661Z,84.50
2022-09-04T22:56:08.409Z,84.70
2022-09-04T22:59:26.594Z,84.70
2022-09-04T23:02:16.451Z,85.00
2022-09-04T23:04:57.382Z,85.30
2022-09-04T23:13:42.022Z,85.60
2022-09-04T23:13:43.307Z,86.00
2022-09-04T23:14:06.547Z,86.20
2022-09-04T23:17:11.649Z,86.50
2022-09-04T23:26:23.469Z,86.80
2022-09-04T23:26:50.538Z,87.30
2022-09-04T23:26:53.818Z,87.10
2022-09-04T23:29:06.583Z,87.50
2022-09-04T23:31:42.394Z,87.50
2022-09-04T23:34:27.939Z,87.60
2022-09-04T23:37:32.103Z,87.40
2022-09-04T23:40:03.244Z,87.50
2022-09-04T23:42:51.173Z,87.70
2022-09-04T23:45:50.918Z,87.80
2022-09-04T23:48:31.787Z,87.90
2022-09-04T23:51:17.665Z,88.20
2022-09-04T23:54:26.506Z,88.30
2022-09-04T23:57:03.320Z,88.30
2022-09-04T23:59:58.311Z,88.30
